Noblesville, Indiana
Current Conditions -  °F | °C
As of 4:35 PM on Friday 24 Oct 2014 (Local Time) from KTYQ Reporting Station
Overcast Overcast  
Wind Chill: 19°   Ceiling: 3600
Heat Index: 19°   Visibility: 10mi
Dew Point: 10°   Wind: 5mph
Humidity: 56%   Direction: 240°WSW
Pressure: 30.03"   Gusts: NA
Location:  40.05°N, 86.01°W
Report Text: KTYQ 242035Z AUTO 24004KT 10SM BKN036 OVC042 19/10 A3003 RMK AO2 T01850095
Loading
Personal Weather Stations






























Interactive Weather Map
Tropical Storm Tracking
New forecast layout! Learn more

10-Day Weather Forecast

Advertisements
Track Severe Weather on mobile